• Join FlightAware (Why Join?)
  • Login
  • US Flag 
12:34PM EDT


 

Airport Tracker/Info


-or-


 

Live Flight TrackerFlight Track Log ✈ LYM1725 ✈ 09-May-2013 ✈ KDEN - KRIW

Flight Track Log - Related Links

Times and Time Zones

All times are in EDT time to prevent confusion due to time zone crossing. See the LYM1725 flight status page for this flight to view local times or setup timezone preferences in your user account.

Time Position Orientation Groundspeed Altitude Reporting Facility
EDT Latitude Longitude Course Direction KTS MPH feet Rate Location/Type
08:53AM 39.9000 -104.6833 346° North 199 229 7,400  Level Denver TRACON
08:54AM 39.9500 -104.7000 346° North 215 247 8,900 1,680 Climbing Denver TRACON
08:55AM 39.9925 -104.7239 337° Northwest 212 244 10,200 2,040 Climbing Denver Center
08:56AM 40.0506 -104.7514 340° North 207 238 12,500 1,740 Climbing Denver Center
08:57AM 40.1050 -104.7544 358° North 200 230 13,800 1,140 Climbing Denver Center
08:58AM 40.1642 -104.7486 North 213 245 14,900 1,320 Climbing Denver Center
08:59AM 40.2233 -104.7425 North 213 245 16,500 1,320 Climbing Denver Center
09:00AM 40.2744 -104.7744 335° Northwest 209 241 17,700 900 Climbing Denver Center
09:01AM 40.3306 -104.8081 335° Northwest 207 238 18,400 840 Climbing Denver Center
09:02AM 40.3839 -104.8392 336° Northwest 209 241 19,500 720 Climbing Denver Center
09:03AM 40.4378 -104.8717 335° Northwest 214 246 19,900 180 Climbing Denver Center
09:04AM 40.5147 -104.9197 335° Northwest 256 295 20,000  Climbing Denver Center
09:05AM 40.5833 -104.9589 337° Northwest 268 308 20,000  Level Denver Center
09:06AM 40.6533 -105.0053 333° Northwest 280 322 20,000  Level Denver Center
09:07AM 40.7242 -105.0503 334° Northwest 284 327 20,000  Level Denver Center
09:08AM 40.7983 -105.0967 335° Northwest 280 322 20,000  Level Denver Center
09:09AM 40.8511 -105.1747 312° West 286 329 20,000  Level Denver Center
09:10AM 40.9128 -105.2628 313° West 292 336 20,000 -60 Level Denver Center
09:11AM 40.9647 -105.3425 311° West 294 338 19,900  Descending Denver Center
09:12AM 41.0181 -105.4208 312° West 297 342 20,000  Climbing Denver Center
09:13AM 41.0797 -105.5072 313° West 293 337 20,000  Level Denver Center
09:14AM 41.1319 -105.5811 313° West 288 331 20,000 -60 Level Denver Center
09:15AM 41.1856 -105.6586 313° West 293 337 19,900  Descending Denver Center
09:16AM 41.2472 -105.7469 313° West 293 337 20,000  Climbing Denver Center
09:17AM 41.3011 -105.8239 313° West 296 341 19,900  Descending Denver Center
09:18AM 41.3547 -105.9000 313° West 296 341 20,000  Climbing Denver Center
09:19AM 41.4150 -105.9875 313° West 289 333 20,000  Level Denver Center
09:20AM 41.4672 -106.0622 313° West 288 331 20,000  Level Denver Center
09:21AM 41.5208 -106.1361 314° West 289 333 20,000  Level Denver Center
09:22AM 41.5903 -106.2372 313° West 289 333 20,000  Level Denver Center
09:24AM 41.6419 -106.3128 312° West 288 331 20,000  Level Denver Center
09:25AM 41.7031 -106.4014 313° West 290 334 20,000 -60 Level Denver Center
09:26AM 41.7558 -106.4744 314° West 286 329 19,900  Descending Denver Center
09:27AM 41.8089 -106.5506 313° West 285 328 20,100  Climbing Denver Center
09:28AM 41.8678 -106.6394 312° West 286 329 19,900 -60 Descending Denver Center
09:29AM 41.9192 -106.7164 312° West 290 334 20,000  Climbing Denver Center
09:30AM 41.9706 -106.7900 313° West 285 328 20,000 -60 Level Denver Center
09:31AM 42.0297 -106.8792 312° West 286 329 19,900 -60 Descending Denver Center
09:32AM 42.0903 -106.9697 312° West 290 334 19,900  Level Denver Center
09:33AM 42.1492 -107.0589 312° West 286 329 20,000  Climbing Denver Center
09:34AM 42.2022 -107.1367 313° West 294 338 19,900  Descending Denver Center
09:35AM 42.2622 -107.2253 312° West 290 334 20,000  Climbing Denver Center
09:36AM 42.3144 -107.2997 314° West 286 329 19,900 -300 Descending Denver Center
09:37AM 42.3664 -107.3739 313° West 285 328 19,400 -840 Descending Denver Center
09:38AM 42.4317 -107.4711 312° West 307 353 18,200 -900 Descending Denver Center
09:39AM 42.4886 -107.5572 312° West 318 366 17,600 -780 Descending Denver Center
09:40AM 42.5578 -107.6550 314° West 324 373 16,500 -1,020 Descending Salt Lake Center
09:41AM 42.6211 -107.7564 310° West 327 376 15,500 -1,080 Descending Salt Lake Center
09:42AM 42.6786 -107.8431 312° West 324 373 14,400 -900 Descending Salt Lake Center
09:43AM 42.7431 -107.9456 311° West 322 371 13,700 -780 Descending Salt Lake Center
09:44AM 42.7950 -108.0269 311° West 310 357 12,900 -960 Descending Salt Lake Center
09:45AM 42.8475 -108.1086 311° West 297 342 11,800 -1,140 Descending Salt Lake Center